createdAt,value
2019-05-23T00:02:04.100Z,10.10
2019-05-23T00:05:11.286Z,10.43
2019-05-23T00:08:00.757Z,11.73
2019-05-23T00:11:03.273Z,7.97
2019-05-23T00:13:48.875Z,10.00
2019-05-23T00:16:23.197Z,10.20
2019-05-23T00:18:53.646Z,10.90
2019-05-23T00:21:23.940Z,9.70
2019-05-23T00:23:54.522Z,14.70
2019-05-23T00:26:26.067Z,10.57
2019-05-23T00:29:09.510Z,8.90
2019-05-23T00:31:37.110Z,9.53
2019-05-23T00:34:09.775Z,8.77
2019-05-23T00:36:39.794Z,10.67
2019-05-23T00:39:11.560Z,12.10
2019-05-23T00:41:41.942Z,11.30
2019-05-23T00:44:13.042Z,9.73
2019-05-23T00:46:43.732Z,11.90
2019-05-23T00:49:15.900Z,9.40
2019-05-23T00:51:47.070Z,10.97
2019-05-23T00:54:16.779Z,13.80
2019-05-23T00:56:47.401Z,11.20
2019-05-23T00:59:26.728Z,10.83
2019-05-23T01:01:49.251Z,11.53
2019-05-23T01:04:20.791Z,9.40
2019-05-23T01:06:50.784Z,10.40
2019-05-23T01:09:20.541Z,11.33
2019-05-23T01:11:50.622Z,11.10
2019-05-23T01:14:21.406Z,10.73
2019-05-23T01:16:51.390Z,9.97
2019-05-23T01:19:21.259Z,11.67
2019-05-23T01:22:00.846Z,10.87
2019-05-23T01:24:35.396Z,9.57
2019-05-23T01:27:07.093Z,10.10
2019-05-23T01:29:43.146Z,11.10
2019-05-23T01:32:31.237Z,14.00
2019-05-23T01:35:02.811Z,9.30
2019-05-23T01:37:32.407Z,10.43
2019-05-23T01:40:02.409Z,10.50
2019-05-23T01:42:33.720Z,11.77
2019-05-23T01:45:03.646Z,17.03
2019-05-23T01:47:34.348Z,11.73
2019-05-23T01:50:05.404Z,10.00
2019-05-23T01:52:36.001Z,11.80
2019-05-23T01:55:07.918Z,13.80
2019-05-23T01:57:39.002Z,15.77
2019-05-23T02:00:11.843Z,9.37
2019-05-23T02:02:42.950Z,11.03
2019-05-23T02:05:14.083Z,9.90
2019-05-23T02:07:43.846Z,11.13
2019-05-23T02:10:14.175Z,10.03
2019-05-23T02:12:44.731Z,10.23
2019-05-23T02:15:15.471Z,11.93
2019-05-23T02:17:45.299Z,12.13
2019-05-23T02:20:17.978Z,10.63
2019-05-23T02:22:48.613Z,10.53
2019-05-23T02:25:20.871Z,9.40
2019-05-23T02:27:53.305Z,8.40
2019-05-23T02:30:33.815Z,10.30
2019-05-23T02:32:56.430Z,11.27
2019-05-23T02:35:26.054Z,13.70
2019-05-23T02:38:17.927Z,9.40
2019-05-23T02:40:54.894Z,18.80
2019-05-23T02:43:25.491Z,9.23
2019-05-23T02:45:58.816Z,9.77
2019-05-23T02:48:33.755Z,11.47
2019-05-23T02:51:08.202Z,10.70
2019-05-23T02:53:38.972Z,10.17
2019-05-23T02:56:13.275Z,12.40
2019-05-23T02:59:01.491Z,12.63
2019-05-23T03:01:55.200Z,11.77
2019-05-23T03:04:28.171Z,13.80
2019-05-23T03:07:01.296Z,11.83
2019-05-23T03:09:34.151Z,9.77
2019-05-23T03:12:06.887Z,10.97
2019-05-23T03:14:38.999Z,14.43
2019-05-23T03:17:13.929Z,11.03
2019-05-23T03:19:54.127Z,11.40
2019-05-23T03:22:36.405Z,10.20
2019-05-23T03:25:16.907Z,14.17
2019-05-23T03:27:48.435Z,16.93
2019-05-23T03:30:24.919Z,11.83
2019-05-23T03:33:00.109Z,12.23
2019-05-23T03:35:36.109Z,21.90
2019-05-23T03:38:06.269Z,11.70
2019-05-23T03:40:36.244Z,13.37
2019-05-23T03:43:08.302Z,15.40
2019-05-23T03:45:40.401Z,11.30
2019-05-23T03:48:11.544Z,10.73
2019-05-23T03:50:43.361Z,13.10
2019-05-23T03:53:16.981Z,13.47
2019-05-23T03:55:50.196Z,16.70
2019-05-23T03:58:21.187Z,25.17
2019-05-23T04:00:54.839Z,18.13
2019-05-23T04:03:26.647Z,23.27
2019-05-23T04:05:56.761Z,28.33
2019-05-23T04:08:26.814Z,13.83
2019-05-23T04:10:58.210Z,13.97
2019-05-23T04:13:28.278Z,13.47
2019-05-23T04:15:58.737Z,11.57
2019-05-23T04:18:28.494Z,27.40
2019-05-23T04:20:58.247Z,22.47
2019-05-23T04:23:28.024Z,13.83
2019-05-23T04:25:58.004Z,22.93
2019-05-23T04:28:28.979Z,15.33
2019-05-23T04:30:59.334Z,21.07
2019-05-23T04:33:29.035Z,26.33
2019-05-23T04:35:59.570Z,27.20
2019-05-23T04:38:30.034Z,29.83
2019-05-23T04:40:59.639Z,28.37
2019-05-23T04:43:29.431Z,33.50
2019-05-23T04:46:00.355Z,34.60
2019-05-23T04:48:30.058Z,24.13
2019-05-23T04:51:01.209Z,44.23
2019-05-23T04:53:31.496Z,26.13
2019-05-23T04:56:01.811Z,29.83
2019-05-23T04:58:31.850Z,19.63
2019-05-23T05:01:01.720Z,18.73
2019-05-23T05:03:31.941Z,18.87
2019-05-23T05:06:01.981Z,12.40
2019-05-23T05:08:31.646Z,13.03
2019-05-23T05:11:01.322Z,19.27
2019-05-23T05:13:34.339Z,13.85
2019-05-23T05:16:04.682Z,11.12
2019-05-23T05:18:34.870Z,15.95
2019-05-23T05:21:04.567Z,10.23
2019-05-23T05:23:34.257Z,14.85
2019-05-23T05:26:04.222Z,11.25
2019-05-23T05:28:34.137Z,10.75
2019-05-23T05:31:04.076Z,10.38
2019-05-23T05:33:33.798Z,9.83
2019-05-23T05:36:04.621Z,12.00
2019-05-23T05:38:35.112Z,11.38
2019-05-23T05:41:05.283Z,11.40
2019-05-23T05:43:36.267Z,11.15
2019-05-23T05:46:06.195Z,13.72
2019-05-23T05:48:36.733Z,13.62
2019-05-23T05:51:06.625Z,11.70
2019-05-23T05:53:36.472Z,10.68
2019-05-23T05:56:06.158Z,9.45
2019-05-23T05:58:35.852Z,9.50
2019-05-23T06:01:08.834Z,12.43
2019-05-23T06:03:39.305Z,10.72
2019-05-23T06:06:15.334Z,15.40
2019-05-23T06:08:45.978Z,10.78
2019-05-23T06:11:16.853Z,10.98
2019-05-23T06:13:46.740Z,15.05
2019-05-23T06:16:16.508Z,14.55
2019-05-23T06:18:46.593Z,10.78
2019-05-23T06:21:18.945Z,19.40
2019-05-23T06:23:48.647Z,16.73
2019-05-23T06:26:19.394Z,16.00
2019-05-23T06:28:50.643Z,23.30
2019-05-23T06:31:22.247Z,17.57
2019-05-23T06:33:52.619Z,10.85
2019-05-23T06:36:23.601Z,15.78
2019-05-23T06:38:55.448Z,12.95
2019-05-23T06:41:26.835Z,14.03
2019-05-23T06:43:56.586Z,11.73
2019-05-23T06:46:26.245Z,13.32
2019-05-23T06:48:56.093Z,13.50
2019-05-23T06:51:26.359Z,13.68
2019-05-23T06:53:56.638Z,10.65
2019-05-23T06:56:27.295Z,13.68
2019-05-23T06:58:57.002Z,14.43
2019-05-23T07:01:26.790Z,15.18
2019-05-23T07:03:56.971Z,11.53
2019-05-23T07:06:27.457Z,11.48
2019-05-23T07:08:57.522Z,10.93
2019-05-23T07:11:27.258Z,11.18
2019-05-23T07:13:57.933Z,10.50
2019-05-23T07:16:27.554Z,10.93
2019-05-23T07:18:57.247Z,15.05
2019-05-23T07:21:28.438Z,11.08
2019-05-23T07:23:58.134Z,10.28
2019-05-23T07:26:28.588Z,10.40
2019-05-23T07:28:58.546Z,11.68
2019-05-23T07:31:28.227Z,10.70
2019-05-23T07:34:02.329Z,10.58
2019-05-23T07:36:30.475Z,11.33
2019-05-23T07:39:00.681Z,12.03
2019-05-23T07:41:32.301Z,13.90
2019-05-23T07:44:02.328Z,12.25
2019-05-23T07:46:32.086Z,9.75
2019-05-23T07:49:02.064Z,17.27
2019-05-23T07:51:32.331Z,9.68
2019-05-23T07:54:09.556Z,8.10
2019-05-23T07:56:40.285Z,10.95
2019-05-23T07:59:11.164Z,10.55
2019-05-23T08:01:44.524Z,15.13
2019-05-23T08:04:21.222Z,9.53
2019-05-23T08:06:48.908Z,9.43
2019-05-23T08:09:18.122Z,8.03
2019-05-23T08:11:48.808Z,10.58
2019-05-23T08:14:18.467Z,9.30
2019-05-23T08:16:49.049Z,9.50
2019-05-23T08:19:20.733Z,8.55
2019-05-23T08:21:50.437Z,8.08
2019-05-23T08:24:20.708Z,10.20
2019-05-23T08:26:50.932Z,9.80
2019-05-23T08:29:25.883Z,7.35
2019-05-23T08:31:54.279Z,6.37
2019-05-23T08:34:40.132Z,3.67
2019-05-23T08:36:56.234Z,4.92
2019-05-23T08:39:26.837Z,4.62
2019-05-23T08:41:57.088Z,4.45
2019-05-23T08:44:27.206Z,4.28
2019-05-23T08:46:57.294Z,3.60
2019-05-23T08:49:28.042Z,3.65
2019-05-23T08:51:58.667Z,4.65
2019-05-23T08:54:28.694Z,5.83
2019-05-23T08:56:58.448Z,3.83
2019-05-23T08:59:28.394Z,3.15
2019-05-23T09:01:58.037Z,4.45
2019-05-23T09:04:29.473Z,3.30
2019-05-23T09:06:59.466Z,4.35
2019-05-23T09:09:30.509Z,2.17
2019-05-23T09:12:00.370Z,3.00
2019-05-23T09:14:30.512Z,2.77
2019-05-23T09:17:01.949Z,2.02
2019-05-23T09:19:31.622Z,2.40
2019-05-23T09:22:01.351Z,6.28
2019-05-23T09:24:31.127Z,1.90
2019-05-23T09:27:01.426Z,4.72
2019-05-23T09:29:32.139Z,2.80
2019-05-23T09:32:01.977Z,7.22
2019-05-23T09:34:32.148Z,4.22
2019-05-23T09:37:01.930Z,4.10
2019-05-23T09:39:32.394Z,3.42
2019-05-23T09:42:02.078Z,4.45
2019-05-23T09:44:32.089Z,4.17
2019-05-23T09:47:03.001Z,4.12
2019-05-23T09:49:32.598Z,9.35
2019-05-23T09:52:02.703Z,3.40
2019-05-23T09:54:32.739Z,4.87
2019-05-23T09:57:02.384Z,4.72
2019-05-23T09:59:32.198Z,6.67
2019-05-23T10:02:02.573Z,5.60
2019-05-23T10:04:32.583Z,7.28
2019-05-23T10:07:02.565Z,3.27
2019-05-23T10:09:33.305Z,4.40
2019-05-23T10:12:03.049Z,6.67
2019-05-23T10:14:34.851Z,3.08
2019-05-23T10:17:04.910Z,1.70
2019-05-23T10:19:34.834Z,1.15
2019-05-23T10:22:05.887Z,2.05
2019-05-23T10:24:35.513Z,1.35
2019-05-23T10:27:07.627Z,2.20
2019-05-23T10:29:37.308Z,1.30
2019-05-23T10:32:08.669Z,2.98
2019-05-23T10:34:38.298Z,1.30
2019-05-23T10:37:10.272Z,3.12
2019-05-23T10:39:44.155Z,2.10
2019-05-23T10:42:14.004Z,1.52
2019-05-23T10:44:44.973Z,4.25
2019-05-23T10:47:15.231Z,1.52
2019-05-23T10:49:45.298Z,1.70
2019-05-23T10:52:15.362Z,1.37
2019-05-23T10:54:45.274Z,1.50
2019-05-23T10:57:15.146Z,1.37
2019-05-23T10:59:44.742Z,1.72
2019-05-23T11:02:15.569Z,1.65
2019-05-23T11:04:46.195Z,1.02
2019-05-23T11:07:16.775Z,1.25
2019-05-23T11:09:46.412Z,0.65
2019-05-23T11:12:16.155Z,2.42
2019-05-23T11:14:46.319Z,1.35
2019-05-23T11:17:16.196Z,1.30
2019-05-23T11:19:45.869Z,1.55
2019-05-23T11:22:15.591Z,2.58
2019-05-23T11:24:45.276Z,4.40
2019-05-23T11:27:15.346Z,3.92
2019-05-23T11:29:45.220Z,2.22
2019-05-23T11:32:19.781Z,1.55
2019-05-23T11:34:47.542Z,3.42
2019-05-23T11:37:17.515Z,2.47
2019-05-23T11:39:49.956Z,1.02
2019-05-23T11:42:18.679Z,4.53
2019-05-23T11:44:48.284Z,1.52
2019-05-23T11:47:18.271Z,8.58
2019-05-23T11:49:48.055Z,4.00
2019-05-23T11:52:18.807Z,2.85
2019-05-23T11:54:48.892Z,3.62
2019-05-23T11:57:18.894Z,3.70
2019-05-23T11:59:49.147Z,5.20
2019-05-23T12:02:31.290Z,3.67
2019-05-23T12:05:01.843Z,2.20
2019-05-23T12:07:32.280Z,3.05
2019-05-23T12:10:02.073Z,1.85
2019-05-23T12:12:32.675Z,2.92
2019-05-23T12:15:02.272Z,2.05
2019-05-23T12:17:32.716Z,3.02
2019-05-23T12:20:02.917Z,1.82
2019-05-23T12:22:33.518Z,3.15
2019-05-23T12:25:20.189Z,4.30
2019-05-23T12:27:35.885Z,4.30
2019-05-23T12:30:07.990Z,4.85
2019-05-23T12:32:37.678Z,3.25
2019-05-23T12:35:11.033Z,4.67
2019-05-23T12:37:38.963Z,7.03
2019-05-23T12:40:10.786Z,3.95
2019-05-23T12:42:40.515Z,3.90
2019-05-23T12:45:10.661Z,4.10
2019-05-23T12:47:51.858Z,4.50
2019-05-23T12:50:24.755Z,4.20
2019-05-23T12:52:54.440Z,4.00
2019-05-23T12:55:25.255Z,4.25
2019-05-23T12:57:54.860Z,8.58
2019-05-23T13:00:42.581Z,5.45
2019-05-23T13:03:14.234Z,21.05
2019-05-23T13:05:44.324Z,8.53
2019-05-23T13:08:14.371Z,4.72
2019-05-23T13:10:44.047Z,6.87
2019-05-23T13:13:14.439Z,4.05
2019-05-23T13:15:44.213Z,7.87
2019-05-23T13:18:13.996Z,6.97
2019-05-23T13:20:43.918Z,4.53
2019-05-23T13:23:20.744Z,5.80
2019-05-23T13:25:46.069Z,4.33
2019-05-23T13:28:15.828Z,3.47
2019-05-23T13:30:45.577Z,4.50
2019-05-23T13:33:15.566Z,4.05
2019-05-23T13:35:45.886Z,5.53
2019-05-23T13:38:15.939Z,4.50
2019-05-23T13:40:45.779Z,5.40
2019-05-23T13:43:15.522Z,4.92
2019-05-23T13:45:45.626Z,5.92
2019-05-23T13:48:15.392Z,8.43
2019-05-23T13:50:45.286Z,5.08
2019-05-23T13:53:15.035Z,6.03
2019-05-23T13:55:44.937Z,4.35
2019-05-23T13:58:15.319Z,4.28
2019-05-23T14:00:45.362Z,4.78
2019-05-23T14:03:15.352Z,4.40
2019-05-23T14:05:45.187Z,4.92
2019-05-23T14:08:19.025Z,10.30
2019-05-23T14:10:47.078Z,5.05
2019-05-23T14:13:16.868Z,4.65
2019-05-23T14:15:48.876Z,8.55
2019-05-23T14:18:20.055Z,5.17
2019-05-23T14:20:51.704Z,4.33
2019-05-23T14:23:29.510Z,5.72
2019-05-23T14:26:00.654Z,4.78
2019-05-23T14:28:30.731Z,4.55
2019-05-23T14:31:32.570Z,5.10
2019-05-23T14:34:08.859Z,6.83
2019-05-23T14:36:57.684Z,6.30
2019-05-23T14:39:37.210Z,9.07
2019-05-23T14:42:25.486Z,5.25
2019-05-23T14:44:55.285Z,4.85
2019-05-23T14:47:42.725Z,5.28
2019-05-23T14:50:34.337Z,6.03
2019-05-23T14:53:06.251Z,6.05
2019-05-23T14:55:36.172Z,6.47
2019-05-23T14:58:06.200Z,6.83
2019-05-23T15:00:36.943Z,4.75
2019-05-23T15:03:06.542Z,5.65
2019-05-23T15:05:36.134Z,5.37
2019-05-23T15:08:06.254Z,5.45
2019-05-23T15:10:36.134Z,9.85
2019-05-23T15:13:06.192Z,5.97
2019-05-23T15:15:35.865Z,8.50
2019-05-23T15:18:05.676Z,6.67
2019-05-23T15:20:35.568Z,5.40
2019-05-23T15:23:05.367Z,4.83
2019-05-23T15:25:35.062Z,4.83
2019-05-23T15:28:05.008Z,4.25
2019-05-23T15:30:35.452Z,4.22
2019-05-23T15:33:05.326Z,6.25
2019-05-23T15:35:35.610Z,7.65
2019-05-23T15:38:05.449Z,5.33
2019-05-23T15:40:35.841Z,5.55
2019-05-23T15:43:09.521Z,4.25
2019-05-23T15:45:36.894Z,5.50
2019-05-23T15:48:06.583Z,5.87
2019-05-23T15:50:41.841Z,8.33
2019-05-23T15:53:22.455Z,4.33
2019-05-23T15:55:57.252Z,8.53
2019-05-23T15:58:36.004Z,5.00
2019-05-23T16:01:09.161Z,4.22
2019-05-23T16:03:42.267Z,6.47
2019-05-23T16:06:14.627Z,6.00
2019-05-23T16:08:44.958Z,3.90
2019-05-23T16:11:17.632Z,4.05
2019-05-23T16:13:47.140Z,4.28
2019-05-23T16:16:16.964Z,5.20
2019-05-23T16:18:47.430Z,5.03
2019-05-23T16:21:17.550Z,7.22
2019-05-23T16:23:47.382Z,3.80
2019-05-23T16:26:17.465Z,4.75
2019-05-23T16:28:47.114Z,3.15
2019-05-23T16:31:16.719Z,4.78
2019-05-23T16:33:46.866Z,5.72
2019-05-23T16:36:17.131Z,5.33
2019-05-23T16:38:47.374Z,5.20
2019-05-23T16:41:17.027Z,4.58
2019-05-23T16:43:46.893Z,11.48
2019-05-23T16:46:16.694Z,5.25
2019-05-23T16:48:47.354Z,5.62
2019-05-23T16:51:17.949Z,3.25
2019-05-23T16:53:47.642Z,3.65
2019-05-23T16:56:25.424Z,4.30
2019-05-23T16:59:03.402Z,2.27
2019-05-23T17:02:06.548Z,3.10
2019-05-23T17:04:47.544Z,3.27
2019-05-23T17:07:36.318Z,1.92
2019-05-23T17:10:14.395Z,3.35
2019-05-23T17:12:59.166Z,2.42
2019-05-23T17:15:48.077Z,1.70
2019-05-23T17:18:24.442Z,6.45
2019-05-23T17:21:02.875Z,2.05
2019-05-23T17:23:41.864Z,3.35
2019-05-23T17:26:29.595Z,4.58
2019-05-23T17:29:00.641Z,4.15
2019-05-23T17:31:33.063Z,5.22
2019-05-23T17:34:02.930Z,3.33
2019-05-23T17:36:32.648Z,3.12
2019-05-23T17:39:02.732Z,2.90
2019-05-23T17:41:36.635Z,1.72
2019-05-23T17:44:10.117Z,1.60
2019-05-23T17:46:39.790Z,5.42
2019-05-23T17:49:15.859Z,5.72
2019-05-23T17:51:45.480Z,2.50
2019-05-23T17:54:15.106Z,3.55
2019-05-23T17:56:44.762Z,6.55
2019-05-23T17:59:14.598Z,2.92
2019-05-23T18:01:44.279Z,3.27
2019-05-23T18:04:14.373Z,5.37
2019-05-23T18:06:44.662Z,1.62
2019-05-23T18:09:15.529Z,2.10
2019-05-23T18:11:45.712Z,5.45
2019-05-23T18:14:15.814Z,2.30
2019-05-23T18:16:45.804Z,4.15
2019-05-23T18:19:18.190Z,4.80
2019-05-23T18:21:47.881Z,3.07
2019-05-23T18:24:17.654Z,1.62
2019-05-23T18:26:47.379Z,1.67
2019-05-23T18:29:17.350Z,2.67
2019-05-23T18:31:48.710Z,1.90
2019-05-23T18:34:19.844Z,2.60
2019-05-23T18:36:50.262Z,2.77
2019-05-23T18:39:21.750Z,2.87
2019-05-23T18:41:51.514Z,2.50
2019-05-23T18:44:21.763Z,3.87
2019-05-23T18:46:53.703Z,4.43
2019-05-23T18:49:25.638Z,2.20
2019-05-23T18:51:55.622Z,6.50
2019-05-23T18:54:25.748Z,3.80
2019-05-23T18:56:55.546Z,2.80
2019-05-23T18:59:25.870Z,2.90
2019-05-23T19:01:55.669Z,1.90
2019-05-23T19:04:25.275Z,1.83
2019-05-23T19:06:55.902Z,3.40
2019-05-23T19:09:26.262Z,4.40
2019-05-23T19:11:56.573Z,4.03
2019-05-23T19:14:26.514Z,4.30
2019-05-23T19:16:56.436Z,3.23
2019-05-23T19:19:26.075Z,2.57
2019-05-23T19:21:56.772Z,2.63
2019-05-23T19:24:26.706Z,4.53
2019-05-23T19:26:56.539Z,3.30
2019-05-23T19:29:26.700Z,1.73
2019-05-23T19:31:59.606Z,3.07
2019-05-23T19:34:29.682Z,4.77
2019-05-23T19:36:59.446Z,4.87
2019-05-23T19:39:31.240Z,3.33
2019-05-23T19:42:01.138Z,2.40
2019-05-23T19:44:30.826Z,2.73
2019-05-23T19:47:00.730Z,5.30
2019-05-23T19:49:30.630Z,3.53
2019-05-23T19:52:00.334Z,5.80
2019-05-23T19:54:30.022Z,2.37
2019-05-23T19:56:59.706Z,2.60
2019-05-23T19:59:29.567Z,3.50
2019-05-23T20:02:17.686Z,2.70
2019-05-23T20:04:56.191Z,5.43
2019-05-23T20:07:26.418Z,4.50
2019-05-23T20:09:57.464Z,5.37
2019-05-23T20:12:28.346Z,4.87
2019-05-23T20:14:58.106Z,5.40
2019-05-23T20:17:27.958Z,3.10
2019-05-23T20:19:57.604Z,2.93
2019-05-23T20:22:27.991Z,2.47
2019-05-23T20:24:57.687Z,2.47
2019-05-23T20:27:27.387Z,2.17
2019-05-23T20:29:57.184Z,2.07
2019-05-23T20:32:27.238Z,4.00
2019-05-23T20:34:56.849Z,2.70
2019-05-23T20:37:29.765Z,2.40
2019-05-23T20:39:59.617Z,2.47
2019-05-23T20:42:29.459Z,3.03
2019-05-23T20:44:59.518Z,3.90
2019-05-23T20:47:29.481Z,4.03
2019-05-23T20:49:59.250Z,5.10
2019-05-23T20:52:28.912Z,3.50
2019-05-23T20:54:58.642Z,2.93
2019-05-23T20:57:28.319Z,4.60
2019-05-23T20:59:58.160Z,8.03
2019-05-23T21:02:28.470Z,5.47
2019-05-23T21:04:58.078Z,5.30
2019-05-23T21:07:27.694Z,5.87
2019-05-23T21:09:57.379Z,10.03
2019-05-23T21:12:29.881Z,2.90
2019-05-23T21:14:58.501Z,4.13
2019-05-23T21:17:28.200Z,5.07
2019-05-23T21:19:57.807Z,5.30
2019-05-23T21:22:27.476Z,3.63
2019-05-23T21:24:57.145Z,5.23
2019-05-23T21:27:26.783Z,3.00
2019-05-23T21:29:56.384Z,5.97
2019-05-23T21:32:26.074Z,3.90
2019-05-23T21:34:55.774Z,7.50
2019-05-23T21:37:25.377Z,4.33
2019-05-23T21:39:54.995Z,5.07
2019-05-23T21:42:24.680Z,19.27
2019-05-23T21:44:54.309Z,11.90
2019-05-23T21:47:24.008Z,10.43
2019-05-23T21:49:53.710Z,12.70
2019-05-23T21:52:23.424Z,7.77
2019-05-23T21:54:53.033Z,19.13
2019-05-23T21:57:22.622Z,11.97
2019-05-23T21:59:52.255Z,11.17
2019-05-23T22:02:27.726Z,10.80
2019-05-23T22:05:04.347Z,11.77
2019-05-23T22:07:34.379Z,18.33
2019-05-23T22:10:04.486Z,11.73
2019-05-23T22:12:34.481Z,9.40
2019-05-23T22:15:05.752Z,8.30
2019-05-23T22:17:35.642Z,13.07
2019-05-23T22:20:05.830Z,13.27
2019-05-23T22:22:35.550Z,8.70
2019-05-23T22:25:05.811Z,11.30
2019-05-23T22:27:35.515Z,8.53
2019-05-23T22:30:07.088Z,8.70
2019-05-23T22:32:36.791Z,10.70
2019-05-23T22:35:14.195Z,9.27
2019-05-23T22:37:44.279Z,9.37
2019-05-23T22:40:14.791Z,9.57
2019-05-23T22:42:44.662Z,9.47
2019-05-23T22:45:16.659Z,13.20
2019-05-23T22:47:46.282Z,10.57
2019-05-23T22:50:16.252Z,10.97
2019-05-23T22:52:45.932Z,10.63
2019-05-23T22:55:15.656Z,10.43
2019-05-23T22:57:45.295Z,10.23
2019-05-23T23:00:18.587Z,11.60
2019-05-23T23:02:48.186Z,9.90
2019-05-23T23:05:17.887Z,10.03
2019-05-23T23:07:47.658Z,14.03
2019-05-23T23:10:17.359Z,9.93
2019-05-23T23:12:47.410Z,10.13
2019-05-23T23:15:17.394Z,9.70
2019-05-23T23:17:47.170Z,10.47
2019-05-23T23:20:16.933Z,11.47
2019-05-23T23:22:46.563Z,10.90
2019-05-23T23:25:16.341Z,10.70
2019-05-23T23:27:46.052Z,10.30
2019-05-23T23:30:36.895Z,10.03
2019-05-23T23:33:06.806Z,9.53
2019-05-23T23:35:36.570Z,10.97
2019-05-23T23:38:06.916Z,10.90
2019-05-23T23:40:36.543Z,9.50
2019-05-23T23:43:06.304Z,10.27
2019-05-23T23:45:54.038Z,9.47
2019-05-23T23:48:42.403Z,13.37
2019-05-23T23:51:29.961Z,14.73
2019-05-23T23:54:17.303Z,9.50
2019-05-23T23:57:05.938Z,9.07
2019-05-23T23:59:34.830Z,9.87
